Terminal Aerodrome Forecast
Issued by NWS Billings, MT

Home | Current Version | Previous Version | Text Only | Print | Product List | Glossary On
Versions: 1 2 3 4 5 6 7 8 9 10 11 12 13 14 15 16 17 18 19 20 21 22 23 24 25 26 27 28 29 30 31
000
FTUS45 KBYZ 211132
TAFBIL
TAF
KBIL 211132Z 2112/2212 28020G29KT P6SM FEW120
     FM211500 28025G38KT P6SM FEW070
     FM220200 21015KT P6SM SCT080
     FM220800 23015G25KT P6SM VCSH BKN080=

USA.gov is the U.S. government's official web portal to all federal, state and local government web resources and services.